Terminal Aerodrome Forecast
Issued by NWS Charleston, WV

Current Version | Previous Version | Graphics & Text | Print | Product List | Glossary On
Versions: 1 2 3 4 5 6 7 8 9 10 11 12 13 14 15 16 17 18 19 20 21 22
231
FTUS41 KRLX 251737
TAFHTS
TAF
KHTS 251737Z 2518/2618 19010KT 2SM RA BR BKN010 BKN015 OVC060
     FM251900 21009KT 3SM -SHRA OVC010
     FM252200 26009KT P6SM OVC010
     FM260300 26009G15KT P6SM BKN011
     FM261200 25006KT P6SM BKN015
     FM261700 26008KT P6SM SCT050=

USA.gov is the U.S. government's official web portal to all federal, state and local government web resources and services.